Sardis, South Carolina
Current Conditions -  °F | °C
As of 7:15 PM on Monday 24 Nov 2014 (Local Time) from KFLO Reporting Station
Light Rain Light Rain  
Wind Chill: 66°   Ceiling: 11000
Heat Index: 66°   Visibility: 9mi
Dew Point: 62°   Wind: 0mph
Humidity: 87%   Direction: NA
Pressure: 29.85"   Gusts: NA
Location:  34.07°N, 79.933°W
Report Text: KFLO 250015Z 00000KT 9SM -RA BKN110 19/17 A2985 RMK AO2 LTG DSNT NE TSB2354E09 PRESFR P0001 T01890167
Loading
Personal Weather Stations






























Interactive Weather Map New forecast layout! Learn more

10-Day Weather Forecast

Advertisements
Track Severe Weather on mobile